sensor_id;sensor_type;location;lat;lon;timestamp;temperature;humidity
15003;DHT22;7597;53.590;10.020;2022-07-04T00:01:52;14.90;1.00
15003;DHT22;7597;53.590;10.020;2022-07-04T00:04:19;14.70;1.00
15003;DHT22;7597;53.590;10.020;2022-07-04T00:06:45;14.90;1.00
15003;DHT22;7597;53.590;10.020;2022-07-04T00:09:12;14.90;1.00
15003;DHT22;7597;53.590;10.020;2022-07-04T00:11:39;14.90;1.00
15003;DHT22;7597;53.590;10.020;2022-07-04T00:14:05;14.90;1.00
15003;DHT22;7597;53.590;10.020;2022-07-04T00:16:32;14.90;1.00
15003;DHT22;7597;53.590;10.020;2022-07-04T00:18:58;14.90;1.00
15003;DHT22;7597;53.590;10.020;2022-07-04T00:21:25;14.90;1.00
15003;DHT22;7597;53.590;10.020;2022-07-04T00:23:52;14.90;1.00
15003;DHT22;7597;53.590;10.020;2022-07-04T00:26:18;14.90;1.00
15003;DHT22;7597;53.590;10.020;2022-07-04T00:28:45;14.90;1.00
15003;DHT22;7597;53.590;10.020;2022-07-04T00:31:12;15.00;1.00
15003;DHT22;7597;53.590;10.020;2022-07-04T00:33:39;15.00;1.00
15003;DHT22;7597;53.590;10.020;2022-07-04T00:36:06;15.00;1.00
15003;DHT22;7597;53.590;10.020;2022-07-04T00:38:32;15.00;1.00
15003;DHT22;7597;53.590;10.020;2022-07-04T00:40:59;14.90;1.00
15003;DHT22;7597;53.590;10.020;2022-07-04T00:43:27;14.90;1.00
15003;DHT22;7597;53.590;10.020;2022-07-04T00:45:52;14.80;1.00
15003;DHT22;7597;53.590;10.020;2022-07-04T00:48:19;14.70;1.00
15003;DHT22;7597;53.590;10.020;2022-07-04T00:50:46;14.60;1.00
15003;DHT22;7597;53.590;10.020;2022-07-04T00:53:13;14.60;1.00
15003;DHT22;7597;53.590;10.020;2022-07-04T00:55:40;14.60;1.00
15003;DHT22;7597;53.590;10.020;2022-07-04T00:58:07;14.50;1.00
15003;DHT22;7597;53.590;10.020;2022-07-04T01:00:33;14.50;1.00
15003;DHT22;7597;53.590;10.020;2022-07-04T01:03:00;14.50;1.00
15003;DHT22;7597;53.590;10.020;2022-07-04T01:05:27;14.40;1.00
15003;DHT22;7597;53.590;10.020;2022-07-04T01:07:54;14.40;1.00
15003;DHT22;7597;53.590;10.020;2022-07-04T01:10:20;14.40;1.00
15003;DHT22;7597;53.590;10.020;2022-07-04T01:12:47;14.40;1.00
15003;DHT22;7597;53.590;10.020;2022-07-04T01:15:14;14.40;1.00
15003;DHT22;7597;53.590;10.020;2022-07-04T01:17:40;14.40;1.00
15003;DHT22;7597;53.590;10.020;2022-07-04T01:20:12;14.40;1.00
15003;DHT22;7597;53.590;10.020;2022-07-04T01:22:38;14.30;1.00
15003;DHT22;7597;53.590;10.020;2022-07-04T01:25:05;14.30;1.00
15003;DHT22;7597;53.590;10.020;2022-07-04T01:27:31;14.30;1.00
15003;DHT22;7597;53.590;10.020;2022-07-04T01:29:58;14.20;1.00
15003;DHT22;7597;53.590;10.020;2022-07-04T01:32:25;14.20;1.00
15003;DHT22;7597;53.590;10.020;2022-07-04T01:34:52;14.20;1.00
15003;DHT22;7597;53.590;10.020;2022-07-04T01:37:18;14.20;1.00
15003;DHT22;7597;53.590;10.020;2022-07-04T01:39:45;14.20;1.00
15003;DHT22;7597;53.590;10.020;2022-07-04T01:42:11;14.20;1.00
15003;DHT22;7597;53.590;10.020;2022-07-04T01:44:38;14.10;1.00
15003;DHT22;7597;53.590;10.020;2022-07-04T01:47:05;14.10;1.00
15003;DHT22;7597;53.590;10.020;2022-07-04T01:49:32;14.00;1.00
15003;DHT22;7597;53.590;10.020;2022-07-04T01:51:59;14.10;1.00
15003;DHT22;7597;53.590;10.020;2022-07-04T01:54:26;14.00;1.00
15003;DHT22;7597;53.590;10.020;2022-07-04T01:56:53;14.00;1.00
15003;DHT22;7597;53.590;10.020;2022-07-04T01:59:20;14.00;1.00
15003;DHT22;7597;53.590;10.020;2022-07-04T02:01:46;14.00;1.00
15003;DHT22;7597;53.590;10.020;2022-07-04T02:04:13;13.90;1.00
15003;DHT22;7597;53.590;10.020;2022-07-04T02:06:40;14.00;1.00
15003;DHT22;7597;53.590;10.020;2022-07-04T02:09:06;13.90;1.00
15003;DHT22;7597;53.590;10.020;2022-07-04T02:11:39;13.90;1.00
15003;DHT22;7597;53.590;10.020;2022-07-04T02:14:11;14.00;5.20
15003;DHT22;7597;53.590;10.020;2022-07-04T02:16:38;14.00;15.70
15003;DHT22;7597;53.590;10.020;2022-07-04T02:19:04;14.00;24.20
15003;DHT22;7597;53.590;10.020;2022-07-04T02:21:31;14.00;27.80
15003;DHT22;7597;53.590;10.020;2022-07-04T02:23:58;14.00;27.30
15003;DHT22;7597;53.590;10.020;2022-07-04T02:26:24;14.00;30.70
15003;DHT22;7597;53.590;10.020;2022-07-04T02:28:51;13.90;30.90
15003;DHT22;7597;53.590;10.020;2022-07-04T02:31:18;13.90;47.10
15003;DHT22;7597;53.590;10.020;2022-07-04T02:33:45;13.90;46.40
15003;DHT22;7597;53.590;10.020;2022-07-04T02:36:12;13.90;57.20
15003;DHT22;7597;53.590;10.020;2022-07-04T02:38:38;13.90;61.80
15003;DHT22;7597;53.590;10.020;2022-07-04T02:41:05;13.90;67.90
15003;DHT22;7597;53.590;10.020;2022-07-04T02:43:32;13.90;75.70
15003;DHT22;7597;53.590;10.020;2022-07-04T02:46:00;13.80;75.20
15003;DHT22;7597;53.590;10.020;2022-07-04T02:48:27;13.90;77.30
15003;DHT22;7597;53.590;10.020;2022-07-04T02:50:53;13.80;75.80
15003;DHT22;7597;53.590;10.020;2022-07-04T02:53:20;13.80;78.50
15003;DHT22;7597;53.590;10.020;2022-07-04T02:55:47;13.90;80.00
15003;DHT22;7597;53.590;10.020;2022-07-04T02:58:13;13.90;80.20
15003;DHT22;7597;53.590;10.020;2022-07-04T03:00:40;13.80;78.60
15003;DHT22;7597;53.590;10.020;2022-07-04T03:03:06;13.80;78.30
15003;DHT22;7597;53.590;10.020;2022-07-04T03:05:33;13.80;77.10
15003;DHT22;7597;53.590;10.020;2022-07-04T03:08:00;13.80;77.40
15003;DHT22;7597;53.590;10.020;2022-07-04T03:10:26;13.80;77.00
15003;DHT22;7597;53.590;10.020;2022-07-04T03:12:53;13.80;73.50
15003;DHT22;7597;53.590;10.020;2022-07-04T03:15:20;13.80;70.20
15003;DHT22;7597;53.590;10.020;2022-07-04T03:17:47;13.80;64.20
15003;DHT22;7597;53.590;10.020;2022-07-04T03:20:14;13.80;63.70
15003;DHT22;7597;53.590;10.020;2022-07-04T03:22:40;13.70;58.60
15003;DHT22;7597;53.590;10.020;2022-07-04T03:25:07;13.70;55.20
15003;DHT22;7597;53.590;10.020;2022-07-04T03:27:34;13.70;55.00
15003;DHT22;7597;53.590;10.020;2022-07-04T03:30:00;13.70;62.00
15003;DHT22;7597;53.590;10.020;2022-07-04T03:32:27;13.70;64.90
15003;DHT22;7597;53.590;10.020;2022-07-04T03:34:54;13.70;68.50
15003;DHT22;7597;53.590;10.020;2022-07-04T03:37:20;13.80;71.80
15003;DHT22;7597;53.590;10.020;2022-07-04T03:39:47;13.80;73.80
15003;DHT22;7597;53.590;10.020;2022-07-04T03:42:14;13.80;76.00
15003;DHT22;7597;53.590;10.020;2022-07-04T03:44:40;13.80;77.40
15003;DHT22;7597;53.590;10.020;2022-07-04T03:47:07;13.80;77.80
15003;DHT22;7597;53.590;10.020;2022-07-04T03:49:34;13.90;79.70
15003;DHT22;7597;53.590;10.020;2022-07-04T03:52:00;13.80;79.80
15003;DHT22;7597;53.590;10.020;2022-07-04T03:54:27;13.90;79.60
15003;DHT22;7597;53.590;10.020;2022-07-04T03:56:54;13.90;78.00
15003;DHT22;7597;53.590;10.020;2022-07-04T03:59:20;13.90;75.00
15003;DHT22;7597;53.590;10.020;2022-07-04T04:01:47;13.90;70.20
15003;DHT22;7597;53.590;10.020;2022-07-04T04:04:13;13.90;62.80
15003;DHT22;7597;53.590;10.020;2022-07-04T04:06:46;14.00;54.40
15003;DHT22;7597;53.590;10.020;2022-07-04T04:09:13;14.00;43.20
15003;DHT22;7597;53.590;10.020;2022-07-04T04:11:39;14.00;35.40
15003;DHT22;7597;53.590;10.020;2022-07-04T04:14:06;14.00;28.50
15003;DHT22;7597;53.590;10.020;2022-07-04T04:16:33;14.10;19.50
15003;DHT22;7597;53.590;10.020;2022-07-04T04:19:00;14.10;2.50
15003;DHT22;7597;53.590;10.020;2022-07-04T04:21:27;14.10;1.80
15003;DHT22;7597;53.590;10.020;2022-07-04T04:23:53;14.20;1.00
15003;DHT22;7597;53.590;10.020;2022-07-04T04:26:21;14.20;1.00
15003;DHT22;7597;53.590;10.020;2022-07-04T04:28:48;14.30;1.00
15003;DHT22;7597;53.590;10.020;2022-07-04T04:31:14;14.30;1.00
15003;DHT22;7597;53.590;10.020;2022-07-04T04:33:41;14.40;1.00
15003;DHT22;7597;53.590;10.020;2022-07-04T04:36:08;14.40;1.00
15003;DHT22;7597;53.590;10.020;2022-07-04T04:38:34;14.50;1.00
15003;DHT22;7597;53.590;10.020;2022-07-04T04:41:01;14.50;1.00
15003;DHT22;7597;53.590;10.020;2022-07-04T04:43:28;14.20;1.00
15003;DHT22;7597;53.590;10.020;2022-07-04T04:45:54;14.60;1.00
15003;DHT22;7597;53.590;10.020;2022-07-04T04:48:21;14.80;1.00
15003;DHT22;7597;53.590;10.020;2022-07-04T04:50:48;14.80;1.00
15003;DHT22;7597;53.590;10.020;2022-07-04T04:53:14;14.90;1.00
15003;DHT22;7597;53.590;10.020;2022-07-04T04:55:41;15.00;1.00
15003;DHT22;7597;53.590;10.020;2022-07-04T04:58:08;15.00;1.00
15003;DHT22;7597;53.590;10.020;2022-07-04T05:00:34;15.10;1.00
15003;DHT22;7597;53.590;10.020;2022-07-04T05:03:01;15.20;1.00
15003;DHT22;7597;53.590;10.020;2022-07-04T05:05:28;15.20;1.00
15003;DHT22;7597;53.590;10.020;2022-07-04T05:07:55;15.30;1.00
15003;DHT22;7597;53.590;10.020;2022-07-04T05:10:21;15.30;1.00
15003;DHT22;7597;53.590;10.020;2022-07-04T05:12:48;15.40;1.00
15003;DHT22;7597;53.590;10.020;2022-07-04T05:15:16;15.50;1.00
15003;DHT22;7597;53.590;10.020;2022-07-04T05:17:43;15.50;1.00
15003;DHT22;7597;53.590;10.020;2022-07-04T05:20:10;15.50;1.00
15003;DHT22;7597;53.590;10.020;2022-07-04T05:22:37;15.50;1.00
15003;DHT22;7597;53.590;10.020;2022-07-04T05:25:04;15.60;1.00
15003;DHT22;7597;53.590;10.020;2022-07-04T05:27:32;15.70;1.00
15003;DHT22;7597;53.590;10.020;2022-07-04T05:29:58;15.70;1.00
15003;DHT22;7597;53.590;10.020;2022-07-04T05:32:25;15.80;1.00
15003;DHT22;7597;53.590;10.020;2022-07-04T05:34:52;15.80;1.00
15003;DHT22;7597;53.590;10.020;2022-07-04T05:37:19;16.00;1.00
15003;DHT22;7597;53.590;10.020;2022-07-04T05:39:46;16.50;1.00
15003;DHT22;7597;53.590;10.020;2022-07-04T05:42:12;17.40;1.00
15003;DHT22;7597;53.590;10.020;2022-07-04T05:44:39;18.30;1.00
15003;DHT22;7597;53.590;10.020;2022-07-04T05:47:06;18.90;1.00
15003;DHT22;7597;53.590;10.020;2022-07-04T05:49:33;19.60;1.00
15003;DHT22;7597;53.590;10.020;2022-07-04T05:51:59;19.90;1.00
15003;DHT22;7597;53.590;10.020;2022-07-04T05:54:26;20.40;1.00
15003;DHT22;7597;53.590;10.020;2022-07-04T05:56:53;20.70;1.00
15003;DHT22;7597;53.590;10.020;2022-07-04T05:59:19;20.70;1.00
15003;DHT22;7597;53.590;10.020;2022-07-04T06:01:46;20.90;1.00
15003;DHT22;7597;53.590;10.020;2022-07-04T06:04:13;21.70;1.00
15003;DHT22;7597;53.590;10.020;2022-07-04T06:06:39;22.10;1.00
15003;DHT22;7597;53.590;10.020;2022-07-04T06:09:06;22.20;1.00
15003;DHT22;7597;53.590;10.020;2022-07-04T06:11:33;22.30;1.00
15003;DHT22;7597;53.590;10.020;2022-07-04T06:13:59;22.40;1.00
15003;DHT22;7597;53.590;10.020;2022-07-04T06:16:27;22.20;1.00
15003;DHT22;7597;53.590;10.020;2022-07-04T06:18:53;22.10;1.00
15003;DHT22;7597;53.590;10.020;2022-07-04T06:21:20;21.30;1.00
15003;DHT22;7597;53.590;10.020;2022-07-04T06:23:47;20.60;1.00
15003;DHT22;7597;53.590;10.020;2022-07-04T06:26:14;20.10;1.00
15003;DHT22;7597;53.590;10.020;2022-07-04T06:28:40;20.30;1.00
15003;DHT22;7597;53.590;10.020;2022-07-04T06:31:07;20.20;1.00
15003;DHT22;7597;53.590;10.020;2022-07-04T06:33:34;20.50;1.00
15003;DHT22;7597;53.590;10.020;2022-07-04T06:36:00;21.20;1.00
15003;DHT22;7597;53.590;10.020;2022-07-04T06:38:28;21.50;1.00
15003;DHT22;7597;53.590;10.020;2022-07-04T06:40:54;21.90;1.00
15003;DHT22;7597;53.590;10.020;2022-07-04T06:43:21;22.20;1.00
15003;DHT22;7597;53.590;10.020;2022-07-04T06:45:47;22.20;1.00
15003;DHT22;7597;53.590;10.020;2022-07-04T06:48:14;22.50;1.00
15003;DHT22;7597;53.590;10.020;2022-07-04T06:50:40;22.40;1.00
15003;DHT22;7597;53.590;10.020;2022-07-04T06:53:08;22.40;1.00
15003;DHT22;7597;53.590;10.020;2022-07-04T06:55:34;22.60;1.00
15003;DHT22;7597;53.590;10.020;2022-07-04T06:58:01;22.60;1.00
15003;DHT22;7597;53.590;10.020;2022-07-04T07:00:27;23.30;1.00
15003;DHT22;7597;53.590;10.020;2022-07-04T07:02:59;23.10;1.00
15003;DHT22;7597;53.590;10.020;2022-07-04T07:05:27;22.60;1.00
15003;DHT22;7597;53.590;10.020;2022-07-04T07:08:01;22.80;1.00
15003;DHT22;7597;53.590;10.020;2022-07-04T07:10:47;23.10;1.00
15003;DHT22;7597;53.590;10.020;2022-07-04T07:13:37;24.00;1.00
15003;DHT22;7597;53.590;10.020;2022-07-04T07:16:20;23.70;1.00
15003;DHT22;7597;53.590;10.020;2022-07-04T07:18:53;23.50;1.00
15003;DHT22;7597;53.590;10.020;2022-07-04T07:21:19;23.00;1.00
15003;DHT22;7597;53.590;10.020;2022-07-04T07:23:47;22.80;1.00
15003;DHT22;7597;53.590;10.020;2022-07-04T07:26:13;22.80;1.00
15003;DHT22;7597;53.590;10.020;2022-07-04T07:28:40;23.00;1.00
15003;DHT22;7597;53.590;10.020;2022-07-04T07:31:07;22.90;1.00
15003;DHT22;7597;53.590;10.020;2022-07-04T07:33:33;22.80;1.00
15003;DHT22;7597;53.590;10.020;2022-07-04T07:36:00;22.70;1.00
15003;DHT22;7597;53.590;10.020;2022-07-04T07:38:27;22.20;1.00
15003;DHT22;7597;53.590;10.020;2022-07-04T07:40:53;22.50;1.00
15003;DHT22;7597;53.590;10.020;2022-07-04T07:43:20;23.60;1.00
15003;DHT22;7597;53.590;10.020;2022-07-04T07:45:47;23.90;1.00
15003;DHT22;7597;53.590;10.020;2022-07-04T07:48:13;24.20;1.00
15003;DHT22;7597;53.590;10.020;2022-07-04T07:50:40;23.90;1.00
15003;DHT22;7597;53.590;10.020;2022-07-04T07:53:08;23.70;1.00
15003;DHT22;7597;53.590;10.020;2022-07-04T07:55:34;23.20;1.00
15003;DHT22;7597;53.590;10.020;2022-07-04T07:58:01;23.30;1.00
15003;DHT22;7597;53.590;10.020;2022-07-04T08:00:28;23.60;1.00
15003;DHT22;7597;53.590;10.020;2022-07-04T08:02:55;24.50;1.00
15003;DHT22;7597;53.590;10.020;2022-07-04T08:05:27;24.80;1.00
15003;DHT22;7597;53.590;10.020;2022-07-04T08:07:54;24.80;1.00
15003;DHT22;7597;53.590;10.020;2022-07-04T08:10:21;23.60;1.00
15003;DHT22;7597;53.590;10.020;2022-07-04T08:12:48;23.50;1.00
15003;DHT22;7597;53.590;10.020;2022-07-04T08:15:17;22.80;1.00
15003;DHT22;7597;53.590;10.020;2022-07-04T08:17:43;22.90;1.00
15003;DHT22;7597;53.590;10.020;2022-07-04T08:20:10;24.00;1.00
15003;DHT22;7597;53.590;10.020;2022-07-04T08:22:38;24.40;1.00
15003;DHT22;7597;53.590;10.020;2022-07-04T08:25:04;24.00;1.00
15003;DHT22;7597;53.590;10.020;2022-07-04T08:27:31;24.00;1.00
15003;DHT22;7597;53.590;10.020;2022-07-04T08:29:59;23.90;1.00
15003;DHT22;7597;53.590;10.020;2022-07-04T08:32:26;24.80;1.00
15003;DHT22;7597;53.590;10.020;2022-07-04T08:34:52;25.10;1.00
15003;DHT22;7597;53.590;10.020;2022-07-04T08:37:19;24.10;1.00
15003;DHT22;7597;53.590;10.020;2022-07-04T08:39:45;24.50;1.00
15003;DHT22;7597;53.590;10.020;2022-07-04T08:42:13;24.40;1.00
15003;DHT22;7597;53.590;10.020;2022-07-04T08:44:39;24.80;1.00
15003;DHT22;7597;53.590;10.020;2022-07-04T08:47:07;24.80;1.00
15003;DHT22;7597;53.590;10.020;2022-07-04T08:49:32;23.90;1.00
15003;DHT22;7597;53.590;10.020;2022-07-04T08:52:01;24.60;1.00
15003;DHT22;7597;53.590;10.020;2022-07-04T08:54:26;25.10;1.00
15003;DHT22;7597;53.590;10.020;2022-07-04T08:56:59;25.50;1.00
15003;DHT22;7597;53.590;10.020;2022-07-04T08:59:32;27.00;1.00
15003;DHT22;7597;53.590;10.020;2022-07-04T09:01:59;27.00;1.00
15003;DHT22;7597;53.590;10.020;2022-07-04T09:04:25;27.40;1.00
15003;DHT22;7597;53.590;10.020;2022-07-04T09:06:52;27.60;1.00
15003;DHT22;7597;53.590;10.020;2022-07-04T09:09:18;27.80;1.00
15003;DHT22;7597;53.590;10.020;2022-07-04T09:11:45;27.60;1.00
15003;DHT22;7597;53.590;10.020;2022-07-04T09:14:12;26.70;1.00
15003;DHT22;7597;53.590;10.020;2022-07-04T09:16:39;27.20;1.00
15003;DHT22;7597;53.590;10.020;2022-07-04T09:19:08;26.80;1.00
15003;DHT22;7597;53.590;10.020;2022-07-04T09:21:42;25.70;1.00
15003;DHT22;7597;53.590;10.020;2022-07-04T09:24:10;25.00;1.00
15003;DHT22;7597;53.590;10.020;2022-07-04T09:26:39;25.00;1.00
15003;DHT22;7597;53.590;10.020;2022-07-04T09:29:03;25.00;1.00
15003;DHT22;7597;53.590;10.020;2022-07-04T09:31:30;25.20;1.00
15003;DHT22;7597;53.590;10.020;2022-07-04T09:33:58;25.10;1.00
15003;DHT22;7597;53.590;10.020;2022-07-04T09:36:26;24.70;1.00
15003;DHT22;7597;53.590;10.020;2022-07-04T09:41:29;25.10;1.00
15003;DHT22;7597;53.590;10.020;2022-07-04T09:44:02;25.40;1.00
15003;DHT22;7597;53.590;10.020;2022-07-04T09:46:27;25.50;1.00
15003;DHT22;7597;53.590;10.020;2022-07-04T09:48:54;25.10;1.00
15003;DHT22;7597;53.590;10.020;2022-07-04T09:51:37;26.00;1.00
15003;DHT22;7597;53.590;10.020;2022-07-04T09:54:12;26.00;1.00
15003;DHT22;7597;53.590;10.020;2022-07-04T09:56:41;26.20;1.00
15003;DHT22;7597;53.590;10.020;2022-07-04T09:59:08;26.60;1.00
15003;DHT22;7597;53.590;10.020;2022-07-04T10:01:34;27.20;1.00
15003;DHT22;7597;53.590;10.020;2022-07-04T10:04:01;26.60;1.00
15003;DHT22;7597;53.590;10.020;2022-07-04T10:06:30;26.10;1.00
15003;DHT22;7597;53.590;10.020;2022-07-04T10:08:54;25.50;1.00
15003;DHT22;7597;53.590;10.020;2022-07-04T10:11:21;25.50;1.00
15003;DHT22;7597;53.590;10.020;2022-07-04T10:13:48;25.90;1.00
15003;DHT22;7597;53.590;10.020;2022-07-04T10:16:15;26.40;1.00
15003;DHT22;7597;53.590;10.020;2022-07-04T10:18:42;27.20;1.00
15003;DHT22;7597;53.590;10.020;2022-07-04T10:21:09;27.00;1.00
15003;DHT22;7597;53.590;10.020;2022-07-04T10:23:36;26.90;1.00
15003;DHT22;7597;53.590;10.020;2022-07-04T10:26:02;26.40;1.00
15003;DHT22;7597;53.590;10.020;2022-07-04T10:28:29;26.10;1.00
15003;DHT22;7597;53.590;10.020;2022-07-04T10:30:56;25.50;1.00
15003;DHT22;7597;53.590;10.020;2022-07-04T10:33:24;25.50;1.00
15003;DHT22;7597;53.590;10.020;2022-07-04T10:35:53;25.40;1.00
15003;DHT22;7597;53.590;10.020;2022-07-04T10:38:22;26.20;1.00
15003;DHT22;7597;53.590;10.020;2022-07-04T10:40:49;26.60;1.00
15003;DHT22;7597;53.590;10.020;2022-07-04T10:43:36;26.00;1.00
15003;DHT22;7597;53.590;10.020;2022-07-04T10:46:21;25.40;1.00
15003;DHT22;7597;53.590;10.020;2022-07-04T10:48:33;24.50;1.00
15003;DHT22;7597;53.590;10.020;2022-07-04T10:51:00;23.80;1.00
15003;DHT22;7597;53.590;10.020;2022-07-04T10:53:26;23.90;1.00
15003;DHT22;7597;53.590;10.020;2022-07-04T10:55:53;25.20;1.00
15003;DHT22;7597;53.590;10.020;2022-07-04T11:01:13;26.80;1.00
15003;DHT22;7597;53.590;10.020;2022-07-04T11:03:48;27.70;1.00
15003;DHT22;7597;53.590;10.020;2022-07-04T11:14:40;26.50;1.00
15003;DHT22;7597;53.590;10.020;2022-07-04T11:17:07;25.70;1.00
15003;DHT22;7597;53.590;10.020;2022-07-04T11:19:34;25.10;1.00
15003;DHT22;7597;53.590;10.020;2022-07-04T11:22:00;25.00;1.00
15003;DHT22;7597;53.590;10.020;2022-07-04T11:24:28;24.60;1.00
15003;DHT22;7597;53.590;10.020;2022-07-04T11:26:54;24.60;1.00
15003;DHT22;7597;53.590;10.020;2022-07-04T11:29:21;24.20;1.00
15003;DHT22;7597;53.590;10.020;2022-07-04T11:31:48;23.70;1.00
15003;DHT22;7597;53.590;10.020;2022-07-04T11:34:14;23.40;1.00
15003;DHT22;7597;53.590;10.020;2022-07-04T11:36:42;23.00;1.00
15003;DHT22;7597;53.590;10.020;2022-07-04T11:39:08;23.00;1.00
15003;DHT22;7597;53.590;10.020;2022-07-04T11:41:36;23.10;1.00
15003;DHT22;7597;53.590;10.020;2022-07-04T11:44:08;23.40;1.00
15003;DHT22;7597;53.590;10.020;2022-07-04T11:46:40;24.50;1.00
15003;DHT22;7597;53.590;10.020;2022-07-04T11:49:08;25.90;1.00
15003;DHT22;7597;53.590;10.020;2022-07-04T11:51:34;27.20;1.00
15003;DHT22;7597;53.590;10.020;2022-07-04T11:54:04;28.60;1.00
15003;DHT22;7597;53.590;10.020;2022-07-04T11:56:31;29.30;1.00
15003;DHT22;7597;53.590;10.020;2022-07-04T11:58:58;28.80;1.00
15003;DHT22;7597;53.590;10.020;2022-07-04T12:01:26;27.90;1.00
15003;DHT22;7597;53.590;10.020;2022-07-04T12:03:52;27.50;1.00
15003;DHT22;7597;53.590;10.020;2022-07-04T12:06:19;27.00;1.00
15003;DHT22;7597;53.590;10.020;2022-07-04T12:08:46;27.10;1.00
15003;DHT22;7597;53.590;10.020;2022-07-04T12:11:12;27.50;1.00
15003;DHT22;7597;53.590;10.020;2022-07-04T12:13:39;28.30;1.00
15003;DHT22;7597;53.590;10.020;2022-07-04T12:16:10;28.60;1.00
15003;DHT22;7597;53.590;10.020;2022-07-04T12:18:32;28.80;1.00
15003;DHT22;7597;53.590;10.020;2022-07-04T12:21:11;29.40;1.00
15003;DHT22;7597;53.590;10.020;2022-07-04T12:23:37;29.90;1.00
15003;DHT22;7597;53.590;10.020;2022-07-04T12:26:03;29.20;1.00
15003;DHT22;7597;53.590;10.020;2022-07-04T12:28:34;28.80;1.00
15003;DHT22;7597;53.590;10.020;2022-07-04T12:30:57;28.40;1.00
15003;DHT22;7597;53.590;10.020;2022-07-04T12:33:24;27.00;1.00
15003;DHT22;7597;53.590;10.020;2022-07-04T12:35:51;26.10;1.00
15003;DHT22;7597;53.590;10.020;2022-07-04T12:38:19;25.70;1.00
15003;DHT22;7597;53.590;10.020;2022-07-04T12:40:51;25.10;1.00
15003;DHT22;7597;53.590;10.020;2022-07-04T12:43:17;24.50;1.00
15003;DHT22;7597;53.590;10.020;2022-07-04T12:45:46;24.00;1.00
15003;DHT22;7597;53.590;10.020;2022-07-04T12:48:16;24.00;1.00
15003;DHT22;7597;53.590;10.020;2022-07-04T12:50:42;23.90;1.00
15003;DHT22;7597;53.590;10.020;2022-07-04T12:53:09;24.40;1.00
15003;DHT22;7597;53.590;10.020;2022-07-04T12:55:37;24.50;1.00
15003;DHT22;7597;53.590;10.020;2022-07-04T12:58:02;24.20;1.00
15003;DHT22;7597;53.590;10.020;2022-07-04T13:00:29;24.00;1.00
15003;DHT22;7597;53.590;10.020;2022-07-04T13:02:55;24.00;1.00
15003;DHT22;7597;53.590;10.020;2022-07-04T13:05:23;24.20;1.00
15003;DHT22;7597;53.590;10.020;2022-07-04T13:07:49;24.20;1.00
15003;DHT22;7597;53.590;10.020;2022-07-04T13:10:16;24.70;1.00
15003;DHT22;7597;53.590;10.020;2022-07-04T13:12:43;25.30;1.00
15003;DHT22;7597;53.590;10.020;2022-07-04T13:15:09;25.40;1.00
15003;DHT22;7597;53.590;10.020;2022-07-04T13:17:37;25.30;1.00
15003;DHT22;7597;53.590;10.020;2022-07-04T13:20:04;25.20;1.00
15003;DHT22;7597;53.590;10.020;2022-07-04T13:22:31;24.70;1.00
15003;DHT22;7597;53.590;10.020;2022-07-04T13:24:57;24.50;1.00
15003;DHT22;7597;53.590;10.020;2022-07-04T13:27:24;24.40;1.00
15003;DHT22;7597;53.590;10.020;2022-07-04T13:29:51;24.20;1.00
15003;DHT22;7597;53.590;10.020;2022-07-04T13:32:18;24.10;1.00
15003;DHT22;7597;53.590;10.020;2022-07-04T13:34:45;24.20;1.00
15003;DHT22;7597;53.590;10.020;2022-07-04T13:37:11;24.30;1.00
15003;DHT22;7597;53.590;10.020;2022-07-04T13:39:38;24.40;1.00
15003;DHT22;7597;53.590;10.020;2022-07-04T13:42:05;24.20;1.00
15003;DHT22;7597;53.590;10.020;2022-07-04T13:44:32;24.20;1.00
15003;DHT22;7597;53.590;10.020;2022-07-04T13:46:58;24.10;1.00
15003;DHT22;7597;53.590;10.020;2022-07-04T13:49:25;24.00;1.00
15003;DHT22;7597;53.590;10.020;2022-07-04T13:51:52;23.80;1.00
15003;DHT22;7597;53.590;10.020;2022-07-04T13:54:19;23.60;1.00
15003;DHT22;7597;53.590;10.020;2022-07-04T13:56:46;23.50;1.00
15003;DHT22;7597;53.590;10.020;2022-07-04T13:59:12;23.40;1.00
15003;DHT22;7597;53.590;10.020;2022-07-04T14:01:39;23.30;1.00
15003;DHT22;7597;53.590;10.020;2022-07-04T14:04:05;23.20;1.00
15003;DHT22;7597;53.590;10.020;2022-07-04T14:06:32;23.20;1.00
15003;DHT22;7597;53.590;10.020;2022-07-04T14:08:59;23.10;1.00
15003;DHT22;7597;53.590;10.020;2022-07-04T14:11:25;23.30;1.00
15003;DHT22;7597;53.590;10.020;2022-07-04T14:13:52;23.60;1.00
15003;DHT22;7597;53.590;10.020;2022-07-04T14:16:19;23.80;1.00
15003;DHT22;7597;53.590;10.020;2022-07-04T14:18:45;24.10;1.00
15003;DHT22;7597;53.590;10.020;2022-07-04T14:21:12;24.30;1.00
15003;DHT22;7597;53.590;10.020;2022-07-04T14:23:39;24.60;1.00
15003;DHT22;7597;53.590;10.020;2022-07-04T14:26:08;25.00;1.00
15003;DHT22;7597;53.590;10.020;2022-07-04T14:28:34;25.70;1.00
15003;DHT22;7597;53.590;10.020;2022-07-04T14:31:00;25.90;1.00
15003;DHT22;7597;53.590;10.020;2022-07-04T14:33:27;26.30;1.00
15003;DHT22;7597;53.590;10.020;2022-07-04T14:35:54;26.00;1.00
15003;DHT22;7597;53.590;10.020;2022-07-04T14:38:25;26.00;1.00
15003;DHT22;7597;53.590;10.020;2022-07-04T14:40:57;25.40;1.00
15003;DHT22;7597;53.590;10.020;2022-07-04T14:43:24;25.50;1.00
15003;DHT22;7597;53.590;10.020;2022-07-04T14:45:51;25.20;1.00
15003;DHT22;7597;53.590;10.020;2022-07-04T14:48:19;25.20;1.00
15003;DHT22;7597;53.590;10.020;2022-07-04T14:50:45;25.00;1.00
15003;DHT22;7597;53.590;10.020;2022-07-04T14:53:12;25.20;1.00
15003;DHT22;7597;53.590;10.020;2022-07-04T14:55:39;25.20;1.00
15003;DHT22;7597;53.590;10.020;2022-07-04T14:58:05;25.40;1.00
15003;DHT22;7597;53.590;10.020;2022-07-04T15:00:32;25.70;1.00
15003;DHT22;7597;53.590;10.020;2022-07-04T15:02:58;26.00;1.00
15003;DHT22;7597;53.590;10.020;2022-07-04T15:05:26;26.40;1.00
15003;DHT22;7597;53.590;10.020;2022-07-04T15:07:53;26.40;1.00
15003;DHT22;7597;53.590;10.020;2022-07-04T15:10:21;26.50;1.00
15003;DHT22;7597;53.590;10.020;2022-07-04T15:12:47;26.50;1.00
15003;DHT22;7597;53.590;10.020;2022-07-04T15:15:14;26.50;1.00
15003;DHT22;7597;53.590;10.020;2022-07-04T15:17:40;26.30;1.00
15003;DHT22;7597;53.590;10.020;2022-07-04T15:20:08;26.20;1.00
15003;DHT22;7597;53.590;10.020;2022-07-04T15:22:40;26.00;1.00
15003;DHT22;7597;53.590;10.020;2022-07-04T15:25:13;26.00;1.00
15003;DHT22;7597;53.590;10.020;2022-07-04T15:27:40;26.20;1.00
15003;DHT22;7597;53.590;10.020;2022-07-04T15:30:07;26.30;1.00
15003;DHT22;7597;53.590;10.020;2022-07-04T15:32:34;26.60;1.00
15003;DHT22;7597;53.590;10.020;2022-07-04T15:35:00;26.60;1.00
15003;DHT22;7597;53.590;10.020;2022-07-04T15:37:27;26.70;1.00
15003;DHT22;7597;53.590;10.020;2022-07-04T15:39:54;26.40;1.00
15003;DHT22;7597;53.590;10.020;2022-07-04T15:42:20;25.90;1.00
15003;DHT22;7597;53.590;10.020;2022-07-04T15:44:47;25.60;1.00
15003;DHT22;7597;53.590;10.020;2022-07-04T15:47:13;25.70;1.00
15003;DHT22;7597;53.590;10.020;2022-07-04T15:49:40;26.00;1.00
15003;DHT22;7597;53.590;10.020;2022-07-04T15:52:07;26.50;1.00
15003;DHT22;7597;53.590;10.020;2022-07-04T15:54:34;26.60;1.00
15003;DHT22;7597;53.590;10.020;2022-07-04T15:57:01;26.40;1.00
15003;DHT22;7597;53.590;10.020;2022-07-04T15:59:28;26.40;1.00